sensor_id;sensor_type;location;lat;lon;timestamp;temperature;humidity
33508;DHT22;25568;37.410;-122.096;2023-02-26T00:00:13;14.20;75.40
33508;DHT22;25568;37.410;-122.096;2023-02-26T00:02:42;14.20;75.40
33508;DHT22;25568;37.410;-122.096;2023-02-26T00:05:14;14.20;75.40
33508;DHT22;25568;37.410;-122.096;2023-02-26T00:07:43;14.20;75.40
33508;DHT22;25568;37.410;-122.096;2023-02-26T00:10:13;14.20;75.30
33508;DHT22;25568;37.410;-122.096;2023-02-26T00:12:44;14.20;75.30
33508;DHT22;25568;37.410;-122.096;2023-02-26T00:15:14;14.20;75.30
33508;DHT22;25568;37.410;-122.096;2023-02-26T00:17:48;14.20;75.30
33508;DHT22;25568;37.410;-122.096;2023-02-26T00:20:19;14.30;75.30
33508;DHT22;25568;37.410;-122.096;2023-02-26T00:22:49;14.30;75.30
33508;DHT22;25568;37.410;-122.096;2023-02-26T00:25:18;14.30;75.30
33508;DHT22;25568;37.410;-122.096;2023-02-26T00:27:49;14.30;75.20
33508;DHT22;25568;37.410;-122.096;2023-02-26T00:30:19;14.30;75.20
33508;DHT22;25568;37.410;-122.096;2023-02-26T00:32:48;14.30;75.20
33508;DHT22;25568;37.410;-122.096;2023-02-26T00:35:18;14.30;75.20
33508;DHT22;25568;37.410;-122.096;2023-02-26T00:37:59;14.30;75.20
33508;DHT22;25568;37.410;-122.096;2023-02-26T00:40:35;14.30;75.10
33508;DHT22;25568;37.410;-122.096;2023-02-26T00:43:11;14.30;75.10
33508;DHT22;25568;37.410;-122.096;2023-02-26T00:45:46;14.30;75.10
33508;DHT22;25568;37.410;-122.096;2023-02-26T00:48:33;14.30;75.10
33508;DHT22;25568;37.410;-122.096;2023-02-26T00:51:10;14.30;75.00
33508;DHT22;25568;37.410;-122.096;2023-02-26T00:53:45;14.30;75.00
33508;DHT22;25568;37.410;-122.096;2023-02-26T00:56:16;14.40;75.10
33508;DHT22;25568;37.410;-122.096;2023-02-26T00:58:47;14.40;75.10
33508;DHT22;25568;37.410;-122.096;2023-02-26T01:01:15;14.40;75.00
33508;DHT22;25568;37.410;-122.096;2023-02-26T01:03:45;14.40;75.00
33508;DHT22;25568;37.410;-122.096;2023-02-26T01:06:17;14.40;75.00
33508;DHT22;25568;37.410;-122.096;2023-02-26T01:08:53;14.40;75.80
33508;DHT22;25568;37.410;-122.096;2023-02-26T01:11:23;14.40;75.00
33508;DHT22;25568;37.410;-122.096;2023-02-26T01:13:54;14.40;75.00
33508;DHT22;25568;37.410;-122.096;2023-02-26T01:16:27;14.40;75.00
33508;DHT22;25568;37.410;-122.096;2023-02-26T01:19:02;14.40;75.00
33508;DHT22;25568;37.410;-122.096;2023-02-26T01:21:37;14.40;74.90
33508;DHT22;25568;37.410;-122.096;2023-02-26T01:24:14;14.40;75.00
33508;DHT22;25568;37.410;-122.096;2023-02-26T01:26:44;14.40;75.00
33508;DHT22;25568;37.410;-122.096;2023-02-26T01:29:17;14.40;75.00
33508;DHT22;25568;37.410;-122.096;2023-02-26T01:31:49;14.40;75.10
33508;DHT22;25568;37.410;-122.096;2023-02-26T01:34:25;14.40;75.00
33508;DHT22;25568;37.410;-122.096;2023-02-26T01:37:01;14.40;75.10
33508;DHT22;25568;37.410;-122.096;2023-02-26T01:39:38;14.40;75.00
33508;DHT22;25568;37.410;-122.096;2023-02-26T01:42:13;14.50;75.20
33508;DHT22;25568;37.410;-122.096;2023-02-26T01:44:54;14.50;75.20
33508;DHT22;25568;37.410;-122.096;2023-02-26T01:47:28;14.50;75.20
33508;DHT22;25568;37.410;-122.096;2023-02-26T01:50:09;14.50;75.20
33508;DHT22;25568;37.410;-122.096;2023-02-26T01:55:52;14.50;75.20
33508;DHT22;25568;37.410;-122.096;2023-02-26T01:58:25;14.50;75.30
33508;DHT22;25568;37.410;-122.096;2023-02-26T02:00:57;14.50;75.20
33508;DHT22;25568;37.410;-122.096;2023-02-26T02:03:27;14.50;75.20
33508;DHT22;25568;37.410;-122.096;2023-02-26T02:06:01;14.50;75.20
33508;DHT22;25568;37.410;-122.096;2023-02-26T02:08:33;14.50;75.20
33508;DHT22;25568;37.410;-122.096;2023-02-26T02:11:03;14.50;75.20
33508;DHT22;25568;37.410;-122.096;2023-02-26T02:13:42;14.50;75.20
33508;DHT22;25568;37.410;-122.096;2023-02-26T02:16:25;14.50;75.20
33508;DHT22;25568;37.410;-122.096;2023-02-26T02:19:08;14.50;75.20
33508;DHT22;25568;37.410;-122.096;2023-02-26T02:22:00;14.50;75.20
33508;DHT22;25568;37.410;-122.096;2023-02-26T02:24:38;14.50;75.20
33508;DHT22;25568;37.410;-122.096;2023-02-26T02:27:20;14.50;75.20
33508;DHT22;25568;37.410;-122.096;2023-02-26T02:30:06;14.50;75.10
33508;DHT22;25568;37.410;-122.096;2023-02-26T02:32:43;14.50;75.20
33508;DHT22;25568;37.410;-122.096;2023-02-26T02:38:04;14.50;75.20
33508;DHT22;25568;37.410;-122.096;2023-02-26T02:40:40;14.50;75.30
33508;DHT22;25568;37.410;-122.096;2023-02-26T02:43:14;14.50;75.20
33508;DHT22;25568;37.410;-122.096;2023-02-26T02:45:46;14.50;75.20
33508;DHT22;25568;37.410;-122.096;2023-02-26T02:48:22;14.50;75.20
33508;DHT22;25568;37.410;-122.096;2023-02-26T02:50:56;14.50;75.20
33508;DHT22;25568;37.410;-122.096;2023-02-26T02:53:29;14.50;75.20
33508;DHT22;25568;37.410;-122.096;2023-02-26T02:56:06;14.50;75.20
33508;DHT22;25568;37.410;-122.096;2023-02-26T02:58:40;14.50;75.20
33508;DHT22;25568;37.410;-122.096;2023-02-26T03:01:12;14.50;75.20
33508;DHT22;25568;37.410;-122.096;2023-02-26T03:03:51;14.50;75.20
33508;DHT22;25568;37.410;-122.096;2023-02-26T03:06:22;14.50;75.20
33508;DHT22;25568;37.410;-122.096;2023-02-26T03:08:52;14.50;75.20
33508;DHT22;25568;37.410;-122.096;2023-02-26T03:11:21;14.50;75.20
33508;DHT22;25568;37.410;-122.096;2023-02-26T03:13:51;14.50;75.20
33508;DHT22;25568;37.410;-122.096;2023-02-26T03:16:33;14.50;75.20
33508;DHT22;25568;37.410;-122.096;2023-02-26T03:19:17;14.50;75.30
33508;DHT22;25568;37.410;-122.096;2023-02-26T03:21:55;14.50;75.20
33508;DHT22;25568;37.410;-122.096;2023-02-26T03:24:31;14.50;75.20
33508;DHT22;25568;37.410;-122.096;2023-02-26T03:27:09;14.50;75.20
33508;DHT22;25568;37.410;-122.096;2023-02-26T03:29:47;14.40;75.20
33508;DHT22;25568;37.410;-122.096;2023-02-26T03:32:22;14.50;75.20
33508;DHT22;25568;37.410;-122.096;2023-02-26T03:34:58;14.40;75.20
33508;DHT22;25568;37.410;-122.096;2023-02-26T03:37:33;14.40;75.20
33508;DHT22;25568;37.410;-122.096;2023-02-26T03:40:07;14.40;75.20
33508;DHT22;25568;37.410;-122.096;2023-02-26T03:42:42;14.40;75.20
33508;DHT22;25568;37.410;-122.096;2023-02-26T03:45:13;14.40;75.20
33508;DHT22;25568;37.410;-122.096;2023-02-26T03:47:46;14.40;75.10
33508;DHT22;25568;37.410;-122.096;2023-02-26T03:50:24;14.40;75.20
33508;DHT22;25568;37.410;-122.096;2023-02-26T03:52:56;14.40;75.30
33508;DHT22;25568;37.410;-122.096;2023-02-26T03:55:31;14.40;75.20
33508;DHT22;25568;37.410;-122.096;2023-02-26T03:58:01;14.40;75.20
33508;DHT22;25568;37.410;-122.096;2023-02-26T04:00:32;14.40;75.20
33508;DHT22;25568;37.410;-122.096;2023-02-26T04:03:06;14.40;75.20
33508;DHT22;25568;37.410;-122.096;2023-02-26T04:05:40;14.40;75.20
33508;DHT22;25568;37.410;-122.096;2023-02-26T04:08:10;14.40;75.20
33508;DHT22;25568;37.410;-122.096;2023-02-26T04:10:41;14.30;75.20
33508;DHT22;25568;37.410;-122.096;2023-02-26T04:13:10;14.30;75.20
33508;DHT22;25568;37.410;-122.096;2023-02-26T04:15:39;14.40;75.30
33508;DHT22;25568;37.410;-122.096;2023-02-26T04:18:08;14.30;75.20
33508;DHT22;25568;37.410;-122.096;2023-02-26T04:20:38;14.30;75.20
33508;DHT22;25568;37.410;-122.096;2023-02-26T04:23:07;14.30;75.20
33508;DHT22;25568;37.410;-122.096;2023-02-26T04:25:36;14.30;75.20
33508;DHT22;25568;37.410;-122.096;2023-02-26T04:28:05;14.30;75.20
33508;DHT22;25568;37.410;-122.096;2023-02-26T04:30:34;14.30;75.20
33508;DHT22;25568;37.410;-122.096;2023-02-26T04:33:03;14.30;75.30
33508;DHT22;25568;37.410;-122.096;2023-02-26T04:35:31;14.30;75.30
33508;DHT22;25568;37.410;-122.096;2023-02-26T04:38:02;14.30;75.30
33508;DHT22;25568;37.410;-122.096;2023-02-26T04:40:31;14.30;75.30
33508;DHT22;25568;37.410;-122.096;2023-02-26T04:43:00;14.30;75.40
33508;DHT22;25568;37.410;-122.096;2023-02-26T04:45:29;14.30;75.30
33508;DHT22;25568;37.410;-122.096;2023-02-26T04:47:58;14.30;75.40
33508;DHT22;25568;37.410;-122.096;2023-02-26T04:50:27;14.30;75.40
33508;DHT22;25568;37.410;-122.096;2023-02-26T04:52:55;14.30;75.40
33508;DHT22;25568;37.410;-122.096;2023-02-26T04:55:26;14.20;75.30
33508;DHT22;25568;37.410;-122.096;2023-02-26T04:57:55;14.20;75.40
33508;DHT22;25568;37.410;-122.096;2023-02-26T05:00:24;14.20;75.40
33508;DHT22;25568;37.410;-122.096;2023-02-26T05:02:53;14.20;75.40
33508;DHT22;25568;37.410;-122.096;2023-02-26T05:05:21;14.20;75.40
33508;DHT22;25568;37.410;-122.096;2023-02-26T05:07:50;14.20;75.40
33508;DHT22;25568;37.410;-122.096;2023-02-26T05:10:26;14.20;75.40
33508;DHT22;25568;37.410;-122.096;2023-02-26T05:12:55;14.20;76.20
33508;DHT22;25568;37.410;-122.096;2023-02-26T05:15:24;14.20;75.40
33508;DHT22;25568;37.410;-122.096;2023-02-26T05:17:53;14.20;75.50
33508;DHT22;25568;37.410;-122.096;2023-02-26T05:20:22;14.20;75.50
33508;DHT22;25568;37.410;-122.096;2023-02-26T05:22:51;14.20;75.50
33508;DHT22;25568;37.410;-122.096;2023-02-26T05:25:20;14.20;75.50
33508;DHT22;25568;37.410;-122.096;2023-02-26T05:27:50;14.20;75.50
33508;DHT22;25568;37.410;-122.096;2023-02-26T05:30:20;14.20;75.50
33508;DHT22;25568;37.410;-122.096;2023-02-26T05:32:49;14.10;75.40
33508;DHT22;25568;37.410;-122.096;2023-02-26T05:35:18;14.10;75.50
33508;DHT22;25568;37.410;-122.096;2023-02-26T05:37:47;14.10;75.50
33508;DHT22;25568;37.410;-122.096;2023-02-26T05:40:16;14.10;75.50
33508;DHT22;25568;37.410;-122.096;2023-02-26T05:42:45;14.10;75.50
33508;DHT22;25568;37.410;-122.096;2023-02-26T05:45:15;14.10;75.60
33508;DHT22;25568;37.410;-122.096;2023-02-26T05:47:44;14.10;75.50
33508;DHT22;25568;37.410;-122.096;2023-02-26T05:50:13;14.10;75.60
33508;DHT22;25568;37.410;-122.096;2023-02-26T05:52:42;14.10;75.50
33508;DHT22;25568;37.410;-122.096;2023-02-26T05:55:11;14.10;75.60
33508;DHT22;25568;37.410;-122.096;2023-02-26T05:57:39;14.10;75.70
33508;DHT22;25568;37.410;-122.096;2023-02-26T06:00:10;14.00;75.60
33508;DHT22;25568;37.410;-122.096;2023-02-26T06:02:41;14.10;75.70
33508;DHT22;25568;37.410;-122.096;2023-02-26T06:05:10;14.10;75.70
33508;DHT22;25568;37.410;-122.096;2023-02-26T06:07:39;14.10;75.70
33508;DHT22;25568;37.410;-122.096;2023-02-26T06:10:08;14.10;75.70
33508;DHT22;25568;37.410;-122.096;2023-02-26T06:12:38;14.00;75.70
33508;DHT22;25568;37.410;-122.096;2023-02-26T06:15:08;14.00;75.70
33508;DHT22;25568;37.410;-122.096;2023-02-26T06:17:37;14.00;75.70
33508;DHT22;25568;37.410;-122.096;2023-02-26T06:20:09;14.00;75.70
33508;DHT22;25568;37.410;-122.096;2023-02-26T06:22:40;14.00;75.70
33508;DHT22;25568;37.410;-122.096;2023-02-26T06:25:09;14.00;75.70
33508;DHT22;25568;37.410;-122.096;2023-02-26T06:27:38;14.00;75.70
33508;DHT22;25568;37.410;-122.096;2023-02-26T06:30:08;14.00;75.80
33508;DHT22;25568;37.410;-122.096;2023-02-26T06:32:37;14.00;75.70
33508;DHT22;25568;37.410;-122.096;2023-02-26T06:35:08;14.00;75.80
33508;DHT22;25568;37.410;-122.096;2023-02-26T06:37:37;14.00;75.90
33508;DHT22;25568;37.410;-122.096;2023-02-26T06:40:07;14.00;75.80
33508;DHT22;25568;37.410;-122.096;2023-02-26T06:42:37;14.00;75.90
33508;DHT22;25568;37.410;-122.096;2023-02-26T06:45:07;14.00;75.90
33508;DHT22;25568;37.410;-122.096;2023-02-26T06:47:36;14.00;75.90
33508;DHT22;25568;37.410;-122.096;2023-02-26T06:50:08;14.00;75.90
33508;DHT22;25568;37.410;-122.096;2023-02-26T06:52:37;14.00;75.90
33508;DHT22;25568;37.410;-122.096;2023-02-26T06:55:06;13.90;75.80
33508;DHT22;25568;37.410;-122.096;2023-02-26T06:57:35;13.90;75.80
33508;DHT22;25568;37.410;-122.096;2023-02-26T07:00:06;13.90;75.80
33508;DHT22;25568;37.410;-122.096;2023-02-26T07:02:35;13.90;75.80
33508;DHT22;25568;37.410;-122.096;2023-02-26T07:05:04;13.90;75.90
33508;DHT22;25568;37.410;-122.096;2023-02-26T07:07:35;13.90;75.90
33508;DHT22;25568;37.410;-122.096;2023-02-26T07:10:05;13.90;75.90
33508;DHT22;25568;37.410;-122.096;2023-02-26T07:12:34;13.90;75.90
33508;DHT22;25568;37.410;-122.096;2023-02-26T07:15:04;13.90;75.90
33508;DHT22;25568;37.410;-122.096;2023-02-26T07:17:33;13.90;75.90
33508;DHT22;25568;37.410;-122.096;2023-02-26T07:20:02;13.90;75.90
33508;DHT22;25568;37.410;-122.096;2023-02-26T07:22:37;13.90;75.90
33508;DHT22;25568;37.410;-122.096;2023-02-26T07:25:07;13.80;75.90
33508;DHT22;25568;37.410;-122.096;2023-02-26T07:27:36;13.90;76.00
33508;DHT22;25568;37.410;-122.096;2023-02-26T07:30:07;13.90;76.00
33508;DHT22;25568;37.410;-122.096;2023-02-26T07:32:36;13.80;75.90
33508;DHT22;25568;37.410;-122.096;2023-02-26T07:35:06;13.80;75.90
33508;DHT22;25568;37.410;-122.096;2023-02-26T07:37:37;13.80;75.90
33508;DHT22;25568;37.410;-122.096;2023-02-26T07:40:07;13.80;75.90
33508;DHT22;25568;37.410;-122.096;2023-02-26T07:42:36;13.80;75.90
33508;DHT22;25568;37.410;-122.096;2023-02-26T07:45:06;13.80;75.90
33508;DHT22;25568;37.410;-122.096;2023-02-26T07:47:35;13.80;76.00
33508;DHT22;25568;37.410;-122.096;2023-02-26T07:50:05;13.80;75.90
33508;DHT22;25568;37.410;-122.096;2023-02-26T07:52:34;13.80;76.00
33508;DHT22;25568;37.410;-122.096;2023-02-26T07:55:05;13.80;75.90
33508;DHT22;25568;37.410;-122.096;2023-02-26T07:57:34;13.80;75.90
33508;DHT22;25568;37.410;-122.096;2023-02-26T08:00:04;13.80;76.00
33508;DHT22;25568;37.410;-122.096;2023-02-26T08:02:33;13.80;76.00
33508;DHT22;25568;37.410;-122.096;2023-02-26T08:05:02;13.80;76.00
33508;DHT22;25568;37.410;-122.096;2023-02-26T08:07:31;13.80;76.00
33508;DHT22;25568;37.410;-122.096;2023-02-26T08:10:00;13.80;76.00
33508;DHT22;25568;37.410;-122.096;2023-02-26T08:12:30;13.80;76.00
33508;DHT22;25568;37.410;-122.096;2023-02-26T08:15:00;13.80;76.00
33508;DHT22;25568;37.410;-122.096;2023-02-26T08:17:29;13.70;76.00
33508;DHT22;25568;37.410;-122.096;2023-02-26T08:19:58;13.70;76.00
33508;DHT22;25568;37.410;-122.096;2023-02-26T08:22:27;13.70;76.00
33508;DHT22;25568;37.410;-122.096;2023-02-26T08:24:55;13.70;76.00
33508;DHT22;25568;37.410;-122.096;2023-02-26T08:27:24;13.70;76.00
33508;DHT22;25568;37.410;-122.096;2023-02-26T08:29:55;13.70;76.00
33508;DHT22;25568;37.410;-122.096;2023-02-26T08:32:24;13.70;76.00
33508;DHT22;25568;37.410;-122.096;2023-02-26T08:34:53;13.70;76.00
33508;DHT22;25568;37.410;-122.096;2023-02-26T08:37:22;13.70;76.00
33508;DHT22;25568;37.410;-122.096;2023-02-26T08:39:51;13.70;76.00
33508;DHT22;25568;37.410;-122.096;2023-02-26T08:42:20;13.70;76.00
33508;DHT22;25568;37.410;-122.096;2023-02-26T08:44:49;13.70;76.00
33508;DHT22;25568;37.410;-122.096;2023-02-26T08:47:20;13.70;76.10
33508;DHT22;25568;37.410;-122.096;2023-02-26T08:49:49;13.70;76.00
33508;DHT22;25568;37.410;-122.096;2023-02-26T08:52:18;13.70;76.00
33508;DHT22;25568;37.410;-122.096;2023-02-26T08:54:47;13.70;76.00
33508;DHT22;25568;37.410;-122.096;2023-02-26T08:57:16;13.70;76.10
33508;DHT22;25568;37.410;-122.096;2023-02-26T08:59:45;13.70;76.00
33508;DHT22;25568;37.410;-122.096;2023-02-26T09:02:14;13.70;76.00
33508;DHT22;25568;37.410;-122.096;2023-02-26T09:04:44;13.70;76.00
33508;DHT22;25568;37.410;-122.096;2023-02-26T09:07:28;13.60;76.00
33508;DHT22;25568;37.410;-122.096;2023-02-26T09:09:57;13.70;76.10
33508;DHT22;25568;37.410;-122.096;2023-02-26T09:12:26;13.60;76.00
33508;DHT22;25568;37.410;-122.096;2023-02-26T09:14:55;13.60;76.00
33508;DHT22;25568;37.410;-122.096;2023-02-26T09:17:26;13.60;76.00
33508;DHT22;25568;37.410;-122.096;2023-02-26T09:19:56;13.60;76.10
33508;DHT22;25568;37.410;-122.096;2023-02-26T09:22:25;13.60;76.10
33508;DHT22;25568;37.410;-122.096;2023-02-26T09:24:54;13.60;76.00
33508;DHT22;25568;37.410;-122.096;2023-02-26T09:27:24;13.60;76.00
33508;DHT22;25568;37.410;-122.096;2023-02-26T09:29:53;13.60;76.10
33508;DHT22;25568;37.410;-122.096;2023-02-26T09:32:22;13.60;76.00
33508;DHT22;25568;37.410;-122.096;2023-02-26T09:34:52;13.60;76.00
33508;DHT22;25568;37.410;-122.096;2023-02-26T09:37:23;13.60;76.00
33508;DHT22;25568;37.410;-122.096;2023-02-26T09:39:51;13.60;76.00
33508;DHT22;25568;37.410;-122.096;2023-02-26T09:42:30;13.60;76.00
33508;DHT22;25568;37.410;-122.096;2023-02-26T09:45:02;13.50;76.00
33508;DHT22;25568;37.410;-122.096;2023-02-26T09:47:34;13.60;76.10
33508;DHT22;25568;37.410;-122.096;2023-02-26T09:50:12;13.50;76.00
33508;DHT22;25568;37.410;-122.096;2023-02-26T09:52:49;13.50;76.00
33508;DHT22;25568;37.410;-122.096;2023-02-26T09:55:26;13.50;76.10
33508;DHT22;25568;37.410;-122.096;2023-02-26T09:57:58;13.50;76.10
33508;DHT22;25568;37.410;-122.096;2023-02-26T10:00:46;13.50;76.10
33508;DHT22;25568;37.410;-122.096;2023-02-26T10:03:24;13.50;76.10
33508;DHT22;25568;37.410;-122.096;2023-02-26T10:06:16;13.50;76.10
33508;DHT22;25568;37.410;-122.096;2023-02-26T10:08:55;13.50;76.10
33508;DHT22;25568;37.410;-122.096;2023-02-26T10:11:31;13.50;76.20
33508;DHT22;25568;37.410;-122.096;2023-02-26T10:14:09;13.50;76.10
33508;DHT22;25568;37.410;-122.096;2023-02-26T10:16:42;13.50;76.20
33508;DHT22;25568;37.410;-122.096;2023-02-26T10:19:18;13.50;76.10
33508;DHT22;25568;37.410;-122.096;2023-02-26T10:21:51;13.50;76.20
33508;DHT22;25568;37.410;-122.096;2023-02-26T10:24:28;13.50;76.20
33508;DHT22;25568;37.410;-122.096;2023-02-26T10:27:03;13.50;76.20
33508;DHT22;25568;37.410;-122.096;2023-02-26T10:29:35;13.50;76.20
33508;DHT22;25568;37.410;-122.096;2023-02-26T10:32:20;13.50;76.20
33508;DHT22;25568;37.410;-122.096;2023-02-26T10:34:53;13.40;76.10
33508;DHT22;25568;37.410;-122.096;2023-02-26T10:37:33;13.50;77.00
33508;DHT22;25568;37.410;-122.096;2023-02-26T10:40:12;13.40;76.10
33508;DHT22;25568;37.410;-122.096;2023-02-26T10:42:45;13.40;76.10
33508;DHT22;25568;37.410;-122.096;2023-02-26T10:45:33;13.40;76.90
33508;DHT22;25568;37.410;-122.096;2023-02-26T10:48:24;13.40;76.10
33508;DHT22;25568;37.410;-122.096;2023-02-26T10:50:58;13.40;76.10
33508;DHT22;25568;37.410;-122.096;2023-02-26T10:53:34;13.40;76.20
33508;DHT22;25568;37.410;-122.096;2023-02-26T10:56:08;13.40;76.10
33508;DHT22;25568;37.410;-122.096;2023-02-26T10:58:39;13.40;76.20
33508;DHT22;25568;37.410;-122.096;2023-02-26T11:01:13;13.40;76.20
33508;DHT22;25568;37.410;-122.096;2023-02-26T11:03:45;13.40;76.20
33508;DHT22;25568;37.410;-122.096;2023-02-26T11:06:18;13.40;76.20
33508;DHT22;25568;37.410;-122.096;2023-02-26T11:08:51;13.40;76.20
33508;DHT22;25568;37.410;-122.096;2023-02-26T11:11:47;13.40;76.30
33508;DHT22;25568;37.410;-122.096;2023-02-26T11:14:16;13.40;76.20
33508;DHT22;25568;37.410;-122.096;2023-02-26T11:16:48;13.30;76.20
33508;DHT22;25568;37.410;-122.096;2023-02-26T11:19:22;13.30;76.20
33508;DHT22;25568;37.410;-122.096;2023-02-26T11:21:52;13.40;76.30
33508;DHT22;25568;37.410;-122.096;2023-02-26T11:24:29;13.30;76.20
33508;DHT22;25568;37.410;-122.096;2023-02-26T11:27:03;13.30;76.20
33508;DHT22;25568;37.410;-122.096;2023-02-26T11:29:36;13.30;76.20
33508;DHT22;25568;37.410;-122.096;2023-02-26T11:32:09;13.30;76.20
33508;DHT22;25568;37.410;-122.096;2023-02-26T11:34:47;13.30;76.20
33508;DHT22;25568;37.410;-122.096;2023-02-26T11:37:19;13.30;76.20
33508;DHT22;25568;37.410;-122.096;2023-02-26T11:39:57;13.30;76.20
33508;DHT22;25568;37.410;-122.096;2023-02-26T11:42:28;13.30;76.20
33508;DHT22;25568;37.410;-122.096;2023-02-26T11:44:57;13.30;76.20
33508;DHT22;25568;37.410;-122.096;2023-02-26T11:47:28;13.30;76.30
33508;DHT22;25568;37.410;-122.096;2023-02-26T11:50:01;13.30;76.20
33508;DHT22;25568;37.410;-122.096;2023-02-26T11:52:33;13.30;76.20
33508;DHT22;25568;37.410;-122.096;2023-02-26T11:55:14;13.30;76.30
33508;DHT22;25568;37.410;-122.096;2023-02-26T11:57:50;13.30;76.30
33508;DHT22;25568;37.410;-122.096;2023-02-26T12:00:28;13.30;76.30
33508;DHT22;25568;37.410;-122.096;2023-02-26T12:03:00;13.20;76.30
33508;DHT22;25568;37.410;-122.096;2023-02-26T12:05:30;13.20;76.20
33508;DHT22;25568;37.410;-122.096;2023-02-26T12:08:00;13.20;76.20
33508;DHT22;25568;37.410;-122.096;2023-02-26T12:10:36;13.20;76.20
33508;DHT22;25568;37.410;-122.096;2023-02-26T12:13:16;13.20;76.30
33508;DHT22;25568;37.410;-122.096;2023-02-26T12:15:56;13.20;76.20
33508;DHT22;25568;37.410;-122.096;2023-02-26T12:18:50;13.20;76.30
33508;DHT22;25568;37.410;-122.096;2023-02-26T12:21:37;13.20;76.30
33508;DHT22;25568;37.410;-122.096;2023-02-26T12:24:33;13.20;76.30
33508;DHT22;25568;37.410;-122.096;2023-02-26T12:27:12;13.20;76.30
33508;DHT22;25568;37.410;-122.096;2023-02-26T12:29:58;13.20;76.30
33508;DHT22;25568;37.410;-122.096;2023-02-26T12:32:47;13.20;76.30
33508;DHT22;25568;37.410;-122.096;2023-02-26T12:35:36;13.20;76.30
33508;DHT22;25568;37.410;-122.096;2023-02-26T12:38:24;13.20;76.40
33508;DHT22;25568;37.410;-122.096;2023-02-26T12:41:21;13.20;76.30
33508;DHT22;25568;37.410;-122.096;2023-02-26T12:43:54;13.20;76.30
33508;DHT22;25568;37.410;-122.096;2023-02-26T12:46:41;13.10;76.30
33508;DHT22;25568;37.410;-122.096;2023-02-26T12:49:32;13.20;76.40
33508;DHT22;25568;37.410;-122.096;2023-02-26T12:52:38;13.10;76.30
33508;DHT22;25568;37.410;-122.096;2023-02-26T12:55:22;13.20;76.40
33508;DHT22;25568;37.410;-122.096;2023-02-26T13:01:03;13.10;76.30
33508;DHT22;25568;37.410;-122.096;2023-02-26T13:09:31;13.10;76.40
33508;DHT22;25568;37.410;-122.096;2023-02-26T13:12:16;13.10;76.40
33508;DHT22;25568;37.410;-122.096;2023-02-26T13:14:53;13.10;76.40
33508;DHT22;25568;37.410;-122.096;2023-02-26T13:17:30;13.10;76.40
33508;DHT22;25568;37.410;-122.096;2023-02-26T13:20:04;13.10;76.40
33508;DHT22;25568;37.410;-122.096;2023-02-26T13:22:41;13.10;76.50
33508;DHT22;25568;37.410;-122.096;2023-02-26T13:25:19;13.10;76.40
33508;DHT22;25568;37.410;-122.096;2023-02-26T13:27:50;13.10;76.40
33508;DHT22;25568;37.410;-122.096;2023-02-26T13:30:22;13.10;76.40
33508;DHT22;25568;37.410;-122.096;2023-02-26T13:32:55;13.10;76.40
33508;DHT22;25568;37.410;-122.096;2023-02-26T13:35:31;13.10;76.40
33508;DHT22;25568;37.410;-122.096;2023-02-26T13:38:06;13.10;76.50
33508;DHT22;25568;37.410;-122.096;2023-02-26T13:40:44;13.10;76.50
33508;DHT22;25568;37.410;-122.096;2023-02-26T13:46:24;13.10;76.40
33508;DHT22;25568;37.410;-122.096;2023-02-26T13:49:03;13.10;76.50
33508;DHT22;25568;37.410;-122.096;2023-02-26T13:51:39;13.10;76.50
33508;DHT22;25568;37.410;-122.096;2023-02-26T13:54:31;13.10;76.50
33508;DHT22;25568;37.410;-122.096;2023-02-26T13:57:14;13.10;76.50
33508;DHT22;25568;37.410;-122.096;2023-02-26T14:00:22;13.10;76.50
33508;DHT22;25568;37.410;-122.096;2023-02-26T14:02:54;13.10;76.50
33508;DHT22;25568;37.410;-122.096;2023-02-26T14:08:48;13.10;76.50
33508;DHT22;25568;37.410;-122.096;2023-02-26T14:11:37;13.00;76.50
33508;DHT22;25568;37.410;-122.096;2023-02-26T14:14:18;13.00;76.50
33508;DHT22;25568;37.410;-122.096;2023-02-26T14:16:53;13.10;76.50
33508;DHT22;25568;37.410;-122.096;2023-02-26T14:19:27;13.10;76.50
33508;DHT22;25568;37.410;-122.096;2023-02-26T14:22:00;13.10;76.50
33508;DHT22;25568;37.410;-122.096;2023-02-26T14:24:34;13.00;76.50
33508;DHT22;25568;37.410;-122.096;2023-02-26T14:27:20;13.00;76.50
33508;DHT22;25568;37.410;-122.096;2023-02-26T14:30:02;13.00;76.50
33508;DHT22;25568;37.410;-122.096;2023-02-26T14:32:33;13.00;76.50
33508;DHT22;25568;37.410;-122.096;2023-02-26T14:35:08;13.00;76.40
33508;DHT22;25568;37.410;-122.096;2023-02-26T14:37:39;13.00;76.50
33508;DHT22;25568;37.410;-122.096;2023-02-26T14:40:14;13.00;76.50
33508;DHT22;25568;37.410;-122.096;2023-02-26T14:42:46;13.00;76.50
33508;DHT22;25568;37.410;-122.096;2023-02-26T14:45:29;13.00;76.50
33508;DHT22;25568;37.410;-122.096;2023-02-26T14:48:00;13.00;76.50
33508;DHT22;25568;37.410;-122.096;2023-02-26T14:50:38;13.00;76.50
33508;DHT22;25568;37.410;-122.096;2023-02-26T14:56:13;13.00;76.60
33508;DHT22;25568;37.410;-122.096;2023-02-26T14:59:04;13.00;76.60
33508;DHT22;25568;37.410;-122.096;2023-02-26T15:01:46;13.00;76.50
33508;DHT22;25568;37.410;-122.096;2023-02-26T15:07:28;13.00;76.60
33508;DHT22;25568;37.410;-122.096;2023-02-26T15:10:26;13.00;76.50
33508;DHT22;25568;37.410;-122.096;2023-02-26T15:13:19;13.00;76.50
33508;DHT22;25568;37.410;-122.096;2023-02-26T15:15:54;13.00;76.60
33508;DHT22;25568;37.410;-122.096;2023-02-26T15:18:44;13.00;76.50
33508;DHT22;25568;37.410;-122.096;2023-02-26T15:21:21;13.00;76.60
33508;DHT22;25568;37.410;-122.096;2023-02-26T15:23:53;13.00;76.50
33508;DHT22;25568;37.410;-122.096;2023-02-26T15:26:25;13.00;76.50
33508;DHT22;25568;37.410;-122.096;2023-02-26T15:28:57;13.00;76.50
33508;DHT22;25568;37.410;-122.096;2023-02-26T15:31:34;13.00;77.30
33508;DHT22;25568;37.410;-122.096;2023-02-26T15:34:04;13.00;76.60
33508;DHT22;25568;37.410;-122.096;2023-02-26T15:36:33;13.00;76.50
33508;DHT22;25568;37.410;-122.096;2023-02-26T15:39:04;13.00;76.60
33508;DHT22;25568;37.410;-122.096;2023-02-26T15:41:35;13.00;76.50
33508;DHT22;25568;37.410;-122.096;2023-02-26T15:44:07;12.90;76.50
33508;DHT22;25568;37.410;-122.096;2023-02-26T15:46:40;12.90;76.50
33508;DHT22;25568;37.410;-122.096;2023-02-26T15:49:15;13.00;76.50
33508;DHT22;25568;37.410;-122.096;2023-02-26T15:51:46;13.00;76.50
33508;DHT22;25568;37.410;-122.096;2023-02-26T15:54:18;13.00;76.60